createdAt,value
2019-05-29T00:00:30.354Z,95695.39
2019-05-29T00:02:56.617Z,95694.23
2019-05-29T00:05:22.836Z,95693.09
2019-05-29T00:07:49.157Z,95702.66
2019-05-29T00:10:15.555Z,95703.98
2019-05-29T00:12:41.833Z,95708.61
2019-05-29T00:15:08.528Z,95709.76
2019-05-29T00:17:34.936Z,95713.06
2019-05-29T00:20:01.304Z,95712.09
2019-05-29T00:22:27.415Z,95714.06
2019-05-29T00:24:53.710Z,95718.55
2019-05-29T00:27:19.837Z,95720.19
2019-05-29T00:29:46.120Z,95720.19
2019-05-29T00:32:13.492Z,95723.01
2019-05-29T00:34:39.842Z,95722.48
2019-05-29T00:37:06.368Z,95725.48
2019-05-29T00:39:32.756Z,95719.67
2019-05-29T00:41:59.182Z,95734.42
2019-05-29T00:44:33.903Z,95732.06
2019-05-29T00:46:59.834Z,95733.73
2019-05-29T00:49:29.874Z,95737.36
2019-05-29T00:52:10.618Z,95738.70
2019-05-29T00:54:37.172Z,95740.69
2019-05-29T00:57:03.601Z,95744.16
2019-05-29T00:59:29.867Z,95742.01
2019-05-29T01:01:56.201Z,95746.81
2019-05-29T01:04:23.468Z,95750.92
2019-05-29T01:06:49.682Z,95749.59
2019-05-29T01:09:16.474Z,95743.67
2019-05-29T01:11:42.873Z,95752.27
2019-05-29T01:14:08.973Z,95751.27
2019-05-29T01:16:35.233Z,95753.10
2019-05-29T01:19:20.334Z,95756.90
2019-05-29T01:21:46.672Z,95759.03
2019-05-29T01:24:12.979Z,95761.48
2019-05-29T01:26:39.420Z,95763.29
2019-05-29T01:29:05.557Z,95760.64
2019-05-29T01:31:31.827Z,95766.77
2019-05-29T01:33:57.945Z,95764.78
2019-05-29T01:36:24.248Z,95762.66
2019-05-29T01:38:50.361Z,95772.41
2019-05-29T01:41:17.126Z,95768.64
2019-05-29T01:43:43.577Z,95772.60
2019-05-29T01:46:09.927Z,95775.08
2019-05-29T01:48:36.258Z,95775.56
2019-05-29T01:51:03.138Z,95778.36
2019-05-29T01:53:29.470Z,95783.81
2019-05-29T01:55:55.681Z,95789.62
2019-05-29T01:58:22.075Z,95787.95
2019-05-29T02:00:52.356Z,95797.06
2019-05-29T02:03:19.786Z,95793.76
2019-05-29T02:05:46.126Z,95797.55
2019-05-29T02:08:12.428Z,95801.51
2019-05-29T02:10:40.203Z,95797.71
2019-05-29T02:13:17.250Z,95798.23
2019-05-29T02:15:45.546Z,95803.55
2019-05-29T02:18:15.080Z,95808.48
2019-05-29T02:20:41.410Z,95810.31
2019-05-29T02:23:07.665Z,95812.14
2019-05-29T02:25:34.764Z,95815.45
2019-05-29T02:28:01.008Z,95821.38
2019-05-29T02:30:30.323Z,95829.66
2019-05-29T02:32:55.388Z,95833.11
2019-05-29T02:35:22.602Z,95839.87
2019-05-29T02:37:49.811Z,95834.94
2019-05-29T02:40:16.083Z,95840.23
2019-05-29T02:42:42.484Z,95847.00
2019-05-29T02:45:09.121Z,95846.66
2019-05-29T02:47:35.349Z,95853.75
2019-05-29T02:50:13.512Z,95854.76
2019-05-29T02:52:41.228Z,95861.54
2019-05-29T02:55:10.605Z,95872.61
2019-05-29T02:57:36.875Z,95877.55
2019-05-29T03:00:06.339Z,95885.80
2019-05-29T03:02:33.674Z,95884.81
2019-05-29T03:04:59.954Z,95898.34
2019-05-29T03:07:26.488Z,95906.42
2019-05-29T03:09:53.299Z,95906.91
2019-05-29T03:12:19.500Z,95915.16
2019-05-29T03:14:45.682Z,95913.48
2019-05-29T03:17:11.828Z,95919.58
2019-05-29T03:19:38.096Z,95928.66
2019-05-29T03:22:04.280Z,95926.98
2019-05-29T03:24:33.037Z,95934.58
2019-05-29T03:27:00.746Z,95940.02
2019-05-29T03:29:32.079Z,95942.49
2019-05-29T03:35:15.396Z,95955.65
2019-05-29T03:43:24.119Z,95971.43
2019-05-29T03:45:57.748Z,95976.06
2019-05-29T03:48:40.724Z,95976.02
2019-05-29T03:54:06.202Z,95993.16
2019-05-29T03:59:17.646Z,96002.38
2019-05-29T04:01:44.220Z,96002.17
2019-05-29T04:04:17.411Z,96015.52
2019-05-29T04:06:51.056Z,96015.20
2019-05-29T04:15:08.923Z,96038.55
2019-05-29T04:17:38.051Z,96033.91
2019-05-29T04:20:05.571Z,96039.84
2019-05-29T04:22:36.974Z,96050.70
2019-05-29T04:25:05.864Z,96059.63
2019-05-29T04:27:34.328Z,96066.07
2019-05-29T04:30:01.678Z,96068.89
2019-05-29T04:32:28.264Z,96069.72
2019-05-29T04:34:54.798Z,96076.17
2019-05-29T04:37:21.360Z,96073.17
2019-05-29T04:39:57.152Z,96089.16
2019-05-29T04:42:29.132Z,96093.11
2019-05-29T04:44:55.771Z,96094.09
2019-05-29T04:47:22.147Z,96103.33
2019-05-29T04:49:48.561Z,96105.49
2019-05-29T04:52:14.895Z,96104.17
2019-05-29T04:54:41.153Z,96110.56
2019-05-29T04:57:07.254Z,96119.64
2019-05-29T04:59:33.564Z,96124.11
2019-05-29T05:02:02.198Z,96125.91
2019-05-29T05:04:29.110Z,96125.43
2019-05-29T05:06:57.739Z,96135.63
2019-05-29T05:09:24.523Z,96141.91
2019-05-29T05:11:51.292Z,96146.56
2019-05-29T05:14:17.978Z,96153.03
2019-05-29T05:16:44.916Z,96155.58
2019-05-29T05:19:13.154Z,96154.43
2019-05-29T05:21:40.279Z,96161.41
2019-05-29T05:24:06.502Z,96163.06
2019-05-29T05:26:32.782Z,96166.86
2019-05-29T05:29:00.120Z,96174.00
2019-05-29T05:31:26.429Z,96171.05
2019-05-29T05:33:52.637Z,96183.74
2019-05-29T05:36:18.832Z,96192.34
2019-05-29T05:38:45.200Z,96190.03
2019-05-29T05:41:11.479Z,96194.86
2019-05-29T05:43:37.596Z,96197.05
2019-05-29T05:46:04.845Z,96203.19
2019-05-29T05:48:31.079Z,96206.00
2019-05-29T05:50:57.464Z,96209.35
2019-05-29T05:53:23.709Z,96214.02
2019-05-29T05:55:49.891Z,96218.48
2019-05-29T05:58:16.118Z,96215.39
2019-05-29T06:00:42.300Z,96215.23
2019-05-29T06:03:08.505Z,96217.88
2019-05-29T06:05:36.045Z,96226.97
2019-05-29T06:08:02.719Z,96221.53
2019-05-29T06:10:30.239Z,96230.47
2019-05-29T06:12:56.463Z,96226.05
2019-05-29T06:15:22.735Z,96227.71
2019-05-29T06:18:05.081Z,96230.09
2019-05-29T06:20:17.146Z,96227.64
2019-05-29T06:22:43.648Z,96229.34
2019-05-29T06:25:10.284Z,96230.67
2019-05-29T06:27:37.133Z,96235.01
2019-05-29T06:30:06.588Z,96240.30
2019-05-29T06:32:33.451Z,96243.80
2019-05-29T06:34:59.992Z,96240.98
2019-05-29T06:37:26.099Z,96246.90
2019-05-29T06:39:52.316Z,96247.92
2019-05-29T06:42:18.598Z,96249.78
2019-05-29T06:44:47.660Z,96261.06
2019-05-29T06:47:13.069Z,96263.08
2019-05-29T06:49:40.120Z,96265.09
2019-05-29T06:52:09.210Z,96264.70
2019-05-29T06:54:35.660Z,96269.36
2019-05-29T06:57:04.008Z,96270.05
2019-05-29T06:59:30.267Z,96264.61
2019-05-29T07:01:57.680Z,96267.45
2019-05-29T07:04:23.783Z,96273.27
2019-05-29T07:06:50.004Z,96277.08
2019-05-29T07:09:16.210Z,96275.59
2019-05-29T07:11:43.497Z,96276.72
2019-05-29T07:14:09.874Z,96285.34
2019-05-29T07:16:45.313Z,96291.16
2019-05-29T07:21:32.543Z,96295.19
2019-05-29T07:23:58.637Z,96304.29
2019-05-29T07:26:24.951Z,96303.00
2019-05-29T07:29:07.401Z,96314.09
2019-05-29T07:31:19.383Z,96322.20
2019-05-29T07:33:45.588Z,96318.26
2019-05-29T07:36:12.037Z,96318.28
2019-05-29T07:38:39.552Z,96324.59
2019-05-29T07:41:06.160Z,96333.18
2019-05-29T07:43:33.393Z,96333.03
2019-05-29T07:45:59.754Z,96332.53
2019-05-29T07:48:26.037Z,96339.62
2019-05-29T07:51:06.281Z,96340.13
2019-05-29T07:53:20.871Z,96336.28
2019-05-29T07:55:47.229Z,96339.59
2019-05-29T07:58:13.507Z,96342.73
2019-05-29T08:01:00.958Z,96347.63
2019-05-29T08:03:08.035Z,96344.94
2019-05-29T08:05:34.394Z,96351.17
2019-05-29T08:08:00.748Z,96349.05
2019-05-29T08:10:27.302Z,96354.05
2019-05-29T08:12:56.027Z,96360.09
2019-05-29T08:15:22.476Z,96358.17
2019-05-29T08:17:50.152Z,96360.36
2019-05-29T08:20:17.254Z,96356.56
2019-05-29T08:22:44.460Z,96361.69
2019-05-29T08:25:11.099Z,96362.33
2019-05-29T08:27:37.326Z,96363.30
2019-05-29T08:30:08.641Z,96366.42
2019-05-29T08:32:34.870Z,96371.56
2019-05-29T08:35:01.192Z,96371.56
2019-05-29T08:37:27.364Z,96370.70
2019-05-29T08:39:53.637Z,96377.86
2019-05-29T08:42:23.250Z,96375.37
2019-05-29T08:44:48.086Z,96384.84
2019-05-29T08:47:14.500Z,96386.98
2019-05-29T08:49:41.688Z,96384.33
2019-05-29T08:52:12.212Z,96385.31
2019-05-29T08:54:36.301Z,96389.42
2019-05-29T08:57:02.728Z,96394.23
2019-05-29T08:59:28.925Z,96400.02
2019-05-29T09:01:55.678Z,96397.36
2019-05-29T09:04:22.040Z,96397.89
2019-05-29T09:06:49.202Z,96404.53
2019-05-29T09:09:15.510Z,96403.40
2019-05-29T09:11:43.007Z,96413.05
2019-05-29T09:14:09.260Z,96406.43
2019-05-29T09:16:35.575Z,96410.22
2019-05-29T09:19:01.787Z,96415.36
2019-05-29T09:21:28.223Z,96416.16
2019-05-29T09:23:58.334Z,96423.08
2019-05-29T09:26:25.505Z,96421.64
2019-05-29T09:28:50.829Z,96417.78
2019-05-29T09:31:20.313Z,96427.83
2019-05-29T09:33:51.784Z,96429.67
2019-05-29T09:36:18.806Z,96427.37
2019-05-29T09:38:45.524Z,96433.03
2019-05-29T09:41:15.715Z,96431.38
2019-05-29T09:43:57.738Z,96434.78
2019-05-29T09:46:12.643Z,96434.80
2019-05-29T09:48:49.232Z,96434.14
2019-05-29T09:51:20.601Z,96443.63
2019-05-29T09:53:36.293Z,96451.92
2019-05-29T09:56:05.499Z,96454.06
2019-05-29T09:58:32.184Z,96450.80
2019-05-29T10:01:17.148Z,96451.69
2019-05-29T10:03:26.695Z,96445.65
2019-05-29T10:05:54.649Z,96451.64
2019-05-29T10:08:21.628Z,96451.13
2019-05-29T10:10:48.295Z,96453.17
2019-05-29T10:13:15.544Z,96454.09
2019-05-29T10:15:49.447Z,96452.49
2019-05-29T10:18:31.284Z,96456.41
2019-05-29T10:20:44.184Z,96455.26
2019-05-29T10:23:10.498Z,96450.73
2019-05-29T10:25:38.099Z,96460.52
2019-05-29T10:28:06.103Z,96463.64
2019-05-29T10:30:32.715Z,96463.39
2019-05-29T10:32:59.030Z,96467.46
2019-05-29T10:35:25.741Z,96468.90
2019-05-29T10:37:53.169Z,96471.45
2019-05-29T10:40:19.639Z,96474.92
2019-05-29T10:42:47.142Z,96469.88
2019-05-29T10:45:14.573Z,96473.59
2019-05-29T10:47:41.098Z,96469.97
2019-05-29T10:50:08.974Z,96471.89
2019-05-29T10:52:35.519Z,96467.84
2019-05-29T10:55:01.855Z,96470.68
2019-05-29T10:57:28.499Z,96473.33
2019-05-29T10:59:54.920Z,96464.16
2019-05-29T11:02:23.118Z,96466.92
2019-05-29T11:04:53.026Z,96476.16
2019-05-29T11:07:17.415Z,96468.80
2019-05-29T11:09:45.043Z,96464.53
2019-05-29T11:12:12.571Z,96475.80
2019-05-29T11:14:38.805Z,96475.17
2019-05-29T11:17:05.425Z,96468.98
2019-05-29T11:19:35.700Z,96478.72
2019-05-29T11:22:24.784Z,96478.72
2019-05-29T11:24:30.293Z,96482.80
2019-05-29T11:26:56.737Z,96473.77
2019-05-29T11:29:23.208Z,96479.23
2019-05-29T11:31:53.239Z,96472.99
2019-05-29T11:34:19.541Z,96480.88
2019-05-29T11:36:45.800Z,96482.52
2019-05-29T11:39:13.339Z,96486.83
2019-05-29T11:41:39.723Z,96482.22
2019-05-29T11:44:10.232Z,96467.56
2019-05-29T11:46:39.625Z,96467.56
2019-05-29T11:49:07.929Z,96481.93
2019-05-29T11:51:36.065Z,96482.77
2019-05-29T11:54:02.579Z,96478.13
2019-05-29T11:56:28.747Z,96481.58
2019-05-29T11:58:54.971Z,96490.66
2019-05-29T12:01:23.213Z,96487.21
2019-05-29T12:04:13.127Z,96483.09
2019-05-29T12:06:17.817Z,96474.70
2019-05-29T12:08:44.022Z,96483.36
2019-05-29T12:11:10.225Z,96476.36
2019-05-29T12:13:36.520Z,96486.48
2019-05-29T12:16:04.018Z,96483.59
2019-05-29T12:18:30.232Z,96491.16
2019-05-29T12:20:58.291Z,96483.94
2019-05-29T12:23:27.044Z,96494.21
2019-05-29T12:26:12.840Z,96489.43
2019-05-29T12:28:21.399Z,96492.48
2019-05-29T12:30:47.772Z,96485.19
2019-05-29T12:33:13.985Z,96489.65
2019-05-29T12:35:40.276Z,96497.39
2019-05-29T12:38:06.468Z,96487.75
2019-05-29T12:40:33.249Z,96477.99
2019-05-29T12:43:00.239Z,96490.48
2019-05-29T12:45:27.125Z,96485.66
2019-05-29T12:47:54.179Z,96491.87
2019-05-29T12:50:21.531Z,96486.39
2019-05-29T12:52:49.778Z,96491.63
2019-05-29T12:55:16.362Z,96487.60
2019-05-29T12:57:42.707Z,96483.52
2019-05-29T13:00:13.844Z,96485.70
2019-05-29T13:02:42.126Z,96490.45
2019-05-29T13:05:19.308Z,96485.31
2019-05-29T13:07:40.172Z,96480.41
2019-05-29T13:10:06.979Z,96482.69
2019-05-29T13:12:33.771Z,96493.30
2019-05-29T13:15:05.394Z,96481.95
2019-05-29T13:17:31.625Z,96485.94
2019-05-29T13:20:07.186Z,96479.91
2019-05-29T13:22:28.366Z,96485.04
2019-05-29T13:24:57.846Z,96485.13
2019-05-29T13:27:24.181Z,96484.49
2019-05-29T13:29:50.498Z,96475.97
2019-05-29T13:32:19.665Z,96481.81
2019-05-29T13:34:46.241Z,96481.67
2019-05-29T13:37:12.617Z,96484.60
2019-05-29T13:39:38.886Z,96490.99
2019-05-29T13:42:10.748Z,96490.36
2019-05-29T13:44:33.673Z,96482.84
2019-05-29T13:47:00.088Z,96477.64
2019-05-29T13:49:26.254Z,96470.20
2019-05-29T13:51:52.573Z,96474.50
2019-05-29T13:54:18.762Z,96482.41
2019-05-29T13:56:45.037Z,96479.08
2019-05-29T13:59:11.147Z,96475.68
2019-05-29T14:01:37.485Z,96488.48
2019-05-29T14:04:05.202Z,96491.15
2019-05-29T14:06:31.858Z,96495.21
2019-05-29T14:08:58.989Z,96491.27
2019-05-29T14:11:25.678Z,96496.70
2019-05-29T14:13:51.898Z,96494.97
2019-05-29T14:16:19.219Z,96502.72
2019-05-29T14:18:45.631Z,96503.81
2019-05-29T14:21:13.351Z,96508.14
2019-05-29T14:23:40.100Z,96502.61
2019-05-29T14:26:06.556Z,96496.14
2019-05-29T14:28:32.816Z,96500.16
2019-05-29T14:30:58.997Z,96505.80
2019-05-29T14:33:25.297Z,96506.27
2019-05-29T14:35:51.450Z,96508.56
2019-05-29T14:38:17.682Z,96499.92
2019-05-29T14:40:43.799Z,96505.25
2019-05-29T14:43:13.684Z,96506.34
2019-05-29T14:45:38.146Z,96497.30
2019-05-29T14:48:06.008Z,96500.05
2019-05-29T14:50:32.550Z,96501.42
2019-05-29T14:52:58.895Z,96493.50
2019-05-29T14:55:25.170Z,96497.64
2019-05-29T14:57:51.295Z,96501.91
2019-05-29T15:00:24.728Z,96504.73
2019-05-29T15:02:46.194Z,96497.79
2019-05-29T15:05:14.756Z,96504.45
2019-05-29T15:07:41.218Z,96508.12
2019-05-29T15:10:21.783Z,96508.19
2019-05-29T15:12:36.972Z,96510.52
2019-05-29T15:15:06.728Z,96503.56
2019-05-29T15:17:33.805Z,96493.67
2019-05-29T15:20:07.422Z,96503.48
2019-05-29T15:22:34.576Z,96505.59
2019-05-29T15:25:10.878Z,96503.95
2019-05-29T15:27:29.829Z,96510.64
2019-05-29T15:29:56.204Z,96510.79
2019-05-29T15:32:22.735Z,96510.37
2019-05-29T15:34:49.147Z,96510.59
2019-05-29T15:37:18.241Z,96513.72
2019-05-29T15:39:43.766Z,96523.00
2019-05-29T15:42:10.912Z,96513.38
2019-05-29T15:44:37.447Z,96521.80
2019-05-29T15:47:03.774Z,96512.50
2019-05-29T15:49:30.034Z,96513.09
2019-05-29T15:51:56.303Z,96521.36
2019-05-29T15:54:22.662Z,96517.17
2019-05-29T15:56:49.664Z,96517.73
2019-05-29T15:59:17.124Z,96520.31
2019-05-29T16:01:46.185Z,96519.98
2019-05-29T16:04:13.703Z,96520.13
2019-05-29T16:06:40.966Z,96518.16
2019-05-29T16:09:08.221Z,96518.64
2019-05-29T16:11:35.262Z,96520.33
2019-05-29T16:14:01.644Z,96526.53
2019-05-29T16:16:28.078Z,96531.56
2019-05-29T16:18:54.523Z,96532.95
2019-05-29T16:21:20.848Z,96544.46
2019-05-29T16:23:47.197Z,96536.64
2019-05-29T16:26:31.810Z,96540.42
2019-05-29T16:28:58.149Z,96543.48
2019-05-29T16:31:24.511Z,96540.85
2019-05-29T16:33:51.107Z,96554.27
2019-05-29T16:36:18.657Z,96548.95
2019-05-29T16:38:46.314Z,96549.58
2019-05-29T16:41:13.757Z,96550.63
2019-05-29T16:43:43.558Z,96548.78
2019-05-29T16:46:14.224Z,96549.48
2019-05-29T16:48:38.534Z,96553.95
2019-05-29T16:51:05.077Z,96554.54
2019-05-29T16:53:31.411Z,96551.91
2019-05-29T16:55:57.847Z,96552.55
2019-05-29T16:58:24.228Z,96528.88
2019-05-29T17:00:50.412Z,96546.80
2019-05-29T17:03:17.662Z,96561.23
2019-05-29T17:05:43.927Z,96563.33
2019-05-29T17:08:10.548Z,96565.03
2019-05-29T17:10:36.926Z,96567.89
2019-05-29T17:13:04.981Z,96564.10
2019-05-29T17:15:31.178Z,96561.91
2019-05-29T17:17:57.590Z,96559.39
2019-05-29T17:20:39.291Z,96564.22
2019-05-29T17:23:05.804Z,96568.95
2019-05-29T17:25:33.310Z,96564.98
2019-05-29T17:27:59.585Z,96573.78
2019-05-29T17:30:30.954Z,96575.49
2019-05-29T17:32:57.481Z,96577.89
2019-05-29T17:35:23.697Z,96579.30
2019-05-29T17:37:49.948Z,96577.77
2019-05-29T17:40:17.022Z,96581.90
2019-05-29T17:42:43.601Z,96583.55
2019-05-29T17:45:11.133Z,96586.86
2019-05-29T17:47:38.473Z,96588.58
2019-05-29T17:50:06.558Z,96593.42
2019-05-29T17:52:33.914Z,96588.13
2019-05-29T17:55:00.274Z,96600.81
2019-05-29T17:57:28.621Z,96600.17
2019-05-29T17:59:54.951Z,96606.48
2019-05-29T18:02:24.716Z,96607.75
2019-05-29T18:04:53.443Z,96607.81
2019-05-29T18:07:20.634Z,96612.98
2019-05-29T18:09:47.099Z,96610.67
2019-05-29T18:12:14.441Z,96616.72
2019-05-29T18:14:40.882Z,96609.98
2019-05-29T18:17:07.346Z,96616.70
2019-05-29T18:19:33.870Z,96610.95
2019-05-29T18:22:00.073Z,96614.67
2019-05-29T18:24:27.920Z,96608.91
2019-05-29T18:26:54.835Z,96614.78
2019-05-29T18:29:22.220Z,96614.52
2019-05-29T18:31:48.866Z,96618.55
2019-05-29T18:34:15.187Z,96631.42
2019-05-29T18:36:41.532Z,96633.95
2019-05-29T18:39:07.934Z,96640.98
2019-05-29T18:41:34.586Z,96639.02
2019-05-29T18:44:00.908Z,96647.05
2019-05-29T18:46:27.299Z,96637.09
2019-05-29T18:48:53.483Z,96644.78
2019-05-29T18:51:20.446Z,96643.31
2019-05-29T18:53:46.826Z,96644.66
2019-05-29T18:56:13.254Z,96650.20
2019-05-29T18:58:39.542Z,96649.58
2019-05-29T19:01:05.759Z,96654.77
2019-05-29T19:03:32.702Z,96649.96
2019-05-29T19:05:58.943Z,96657.63
2019-05-29T19:08:25.737Z,96654.80
2019-05-29T19:10:52.054Z,96663.95
2019-05-29T19:13:18.243Z,96664.76
2019-05-29T19:15:44.703Z,96667.88
2019-05-29T19:18:11.122Z,96669.87
2019-05-29T19:20:37.384Z,96672.81
2019-05-29T19:23:03.766Z,96678.45
2019-05-29T19:25:30.831Z,96680.58
2019-05-29T19:27:57.394Z,96688.70
2019-05-29T19:30:24.837Z,96691.63
2019-05-29T19:32:51.132Z,96691.09
2019-05-29T19:35:17.542Z,96697.98
2019-05-29T19:37:43.656Z,96707.69
2019-05-29T19:40:10.608Z,96709.42
2019-05-29T19:42:37.020Z,96711.53
2019-05-29T19:45:05.880Z,96713.61
2019-05-29T19:47:32.782Z,96722.16
2019-05-29T19:49:59.218Z,96721.22
2019-05-29T19:52:25.559Z,96727.58
2019-05-29T19:54:51.799Z,96727.02
2019-05-29T19:57:18.215Z,96726.60
2019-05-29T19:59:44.623Z,96733.83
2019-05-29T20:02:11.058Z,96733.10
2019-05-29T20:04:37.362Z,96739.36
2019-05-29T20:07:04.799Z,96740.62
2019-05-29T20:09:31.276Z,96741.91
2019-05-29T20:11:57.520Z,96748.97
2019-05-29T20:14:23.773Z,96756.52
2019-05-29T20:16:49.888Z,96756.19
2019-05-29T20:19:16.206Z,96756.48
2019-05-29T20:21:42.312Z,96761.77
2019-05-29T20:24:08.567Z,96762.22
2019-05-29T20:26:35.190Z,96764.13
2019-05-29T20:29:01.605Z,96764.70
2019-05-29T20:31:27.717Z,96770.30
2019-05-29T20:33:53.978Z,96766.21
2019-05-29T20:36:20.145Z,96775.39
2019-05-29T20:38:46.548Z,96773.70
2019-05-29T20:41:13.218Z,96777.25
2019-05-29T20:43:39.854Z,96777.69
2019-05-29T20:46:05.933Z,96781.09
2019-05-29T20:48:32.540Z,96784.13
2019-05-29T20:50:58.962Z,96783.52
2019-05-29T20:53:25.428Z,96786.92
2019-05-29T20:55:51.590Z,96790.55
2019-05-29T20:58:24.608Z,96784.03
2019-05-29T21:00:46.233Z,96786.69
2019-05-29T21:03:12.439Z,96786.16
2019-05-29T21:05:39.142Z,96776.91
2019-05-29T21:08:05.456Z,96784.92
2019-05-29T21:10:33.009Z,96786.16
2019-05-29T21:12:59.477Z,96784.44
2019-05-29T21:15:25.947Z,96791.09
2019-05-29T21:17:52.283Z,96787.02
2019-05-29T21:20:18.714Z,96785.95
2019-05-29T21:22:45.160Z,96791.72
2019-05-29T21:25:16.373Z,96793.86
2019-05-29T21:27:43.853Z,96791.77
2019-05-29T21:30:11.014Z,96795.29
2019-05-29T21:32:37.917Z,96795.48
2019-05-29T21:35:05.389Z,96798.67
2019-05-29T21:37:31.601Z,96794.27
2019-05-29T21:39:57.993Z,96800.09
2019-05-29T21:42:24.147Z,96805.77
2019-05-29T21:44:50.464Z,96798.89
2019-05-29T21:47:16.688Z,96797.25
2019-05-29T21:49:43.336Z,96801.45
2019-05-29T21:52:09.596Z,96806.03
2019-05-29T21:54:37.222Z,96804.48
2019-05-29T21:57:03.813Z,96812.31
2019-05-29T21:59:30.243Z,96815.21
2019-05-29T22:01:56.645Z,96815.14
2019-05-29T22:04:23.366Z,96809.06
2019-05-29T22:06:50.866Z,96809.33
2019-05-29T22:09:18.369Z,96810.53
2019-05-29T22:11:44.652Z,96806.50
2019-05-29T22:14:10.930Z,96818.97
2019-05-29T22:16:37.244Z,96814.72
2019-05-29T22:19:04.347Z,96817.66
2019-05-29T22:21:30.825Z,96822.13
2019-05-29T22:23:57.190Z,96827.70
2019-05-29T22:26:23.324Z,96831.81
2019-05-29T22:28:49.684Z,96832.31
2019-05-29T22:31:16.307Z,96825.98
2019-05-29T22:33:42.585Z,96831.85
2019-05-29T22:36:09.292Z,96829.09
2019-05-29T22:38:35.662Z,96830.41
2019-05-29T22:41:02.046Z,96829.34
2019-05-29T22:43:28.446Z,96829.25
2019-05-29T22:45:55.606Z,96830.13
2019-05-29T22:48:21.997Z,96831.56
2019-05-29T22:50:48.647Z,96836.52
2019-05-29T22:53:15.028Z,96833.66
2019-05-29T22:55:41.249Z,96839.86
2019-05-29T22:58:07.554Z,96830.91
2019-05-29T23:00:33.884Z,96829.24
2019-05-29T23:03:00.244Z,96825.89
2019-05-29T23:05:26.973Z,96815.61
2019-05-29T23:07:54.126Z,96820.63
2019-05-29T23:10:20.513Z,96821.94
2019-05-29T23:12:46.712Z,96812.61
2019-05-29T23:15:13.225Z,96814.89
2019-05-29T23:17:44.948Z,96815.02
2019-05-29T23:20:11.381Z,96817.65
2019-05-29T23:22:37.696Z,96823.88
2019-05-29T23:25:04.696Z,96823.16
2019-05-29T23:27:30.993Z,96825.78
2019-05-29T23:29:57.298Z,96827.10
2019-05-29T23:32:23.651Z,96824.47
2019-05-29T23:34:50.070Z,96822.06
2019-05-29T23:37:16.587Z,96824.70
2019-05-29T23:39:42.876Z,96821.84
2019-05-29T23:42:12.480Z,96815.39
2019-05-29T23:44:38.975Z,96814.31
2019-05-29T23:47:07.462Z,96813.97
2019-05-29T23:49:34.086Z,96811.34
2019-05-29T23:52:02.505Z,96814.56
2019-05-29T23:54:28.799Z,96806.67
2019-05-29T23:56:55.857Z,96814.22
2019-05-29T23:59:22.404Z,96817.20
